<?xml version="1.0" encoding="UTF-8" standalone="no" ?>
<gpx xmlns="http://www.topografix.com/GPX/1/1" xmlns:xsi="http://www.w3.org/2001/XMLSchema-instance" xsi:schemaLocation="http://www.topografix.com/GPX/1/1 http://www.topografix.com/GPX/1/1/gpx.xsd" version="1.1" creator="VisuGPX - https://www.visugpx.com">
  <metadata>
    <name>footing thones</name>
    <desc><![CDATA[bloqué par la neige entre 12/et 14]]></desc>
  </metadata>
  <trk>
    <name><![CDATA[fooring thones]]></name>
    <trkseg>
      <trkpt lat="45.88174" lon="6.32901">
        <ele>633.59997558594</ele>
        <time>2013-04-03T10:14:40.000Z</time>
      </trkpt>
      <trkpt lat="45.88174" lon="6.32921">
        <ele>634.59997558594</ele>
        <time>2013-04-03T10:14:45.000Z</time>
      </trkpt>
      <trkpt lat="45.8817" lon="6.32939">
        <ele>635.40002441406</ele>
        <time>2013-04-03T10:14:50.000Z</time>
      </trkpt>
      <trkpt lat="45.88157" lon="6.32952">
        <ele>639.79998779297</ele>
        <time>2013-04-03T10:14:56.000Z</time>
      </trkpt>
      <trkpt lat="45.88146" lon="6.32959">
        <ele>640.79998779297</ele>
        <time>2013-04-03T10:15:00.000Z</time>
      </trkpt>
      <trkpt lat="45.88142" lon="6.32966">
        <ele>643.20001220703</ele>
        <time>2013-04-03T10:15:03.000Z</time>
      </trkpt>
      <trkpt lat="45.88145" lon="6.32979">
        <ele>644.59997558594</ele>
        <time>2013-04-03T10:15:08.000Z</time>
      </trkpt>
      <trkpt lat="45.88152" lon="6.32987">
        <ele>643.59997558594</ele>
        <time>2013-04-03T10:15:12.000Z</time>
      </trkpt>
      <trkpt lat="45.88154" lon="6.32987">
        <ele>642.59997558594</ele>
        <time>2013-04-03T10:15:13.000Z</time>
      </trkpt>
      <trkpt lat="45.88168" lon="6.32994">
        <ele>640.79998779297</ele>
        <time>2013-04-03T10:15:19.000Z</time>
      </trkpt>
      <trkpt lat="45.88173" lon="6.33004">
        <ele>639.40002441406</ele>
        <time>2013-04-03T10:15:23.000Z</time>
      </trkpt>
      <trkpt lat="45.88176" lon="6.33015">
        <ele>635.40002441406</ele>
        <time>2013-04-03T10:15:28.000Z</time>
      </trkpt>
      <trkpt lat="45.88177" lon="6.33021">
        <ele>637.79998779297</ele>
        <time>2013-04-03T10:15:31.000Z</time>
      </trkpt>
      <trkpt lat="45.88176" lon="6.33032">
        <ele>642.20001220703</ele>
        <time>2013-04-03T10:15:36.000Z</time>
      </trkpt>
      <trkpt lat="45.88175" lon="6.33043">
        <ele>644.59997558594</ele>
        <time>2013-04-03T10:15:41.000Z</time>
      </trkpt>
      <trkpt lat="45.88176" lon="6.33045">
        <ele>645</ele>
        <time>2013-04-03T10:15:42.000Z</time>
      </trkpt>
      <trkpt lat="45.88178" lon="6.33056">
        <ele>651.40002441406</ele>
        <time>2013-04-03T10:15:48.000Z</time>
      </trkpt>
      <trkpt lat="45.88178" lon="6.33059">
        <ele>652.20001220703</ele>
        <time>2013-04-03T10:15:49.000Z</time>
      </trkpt>
      <trkpt lat="45.88179" lon="6.33064">
        <ele>650.79998779297</ele>
        <time>2013-04-03T10:15:51.000Z</time>
      </trkpt>
      <trkpt lat="45.88184" lon="6.33075">
        <ele>648.40002441406</ele>
        <time>2013-04-03T10:15:57.000Z</time>
      </trkpt>
      <trkpt lat="45.88196" lon="6.33085">
        <ele>649.79998779297</ele>
        <time>2013-04-03T10:16:04.000Z</time>
      </trkpt>
      <trkpt lat="45.88198" lon="6.33086">
        <ele>651.79998779297</ele>
        <time>2013-04-03T10:16:05.000Z</time>
      </trkpt>
      <trkpt lat="45.88212" lon="6.33089">
        <ele>660.40002441406</ele>
        <time>2013-04-03T10:16:14.000Z</time>
      </trkpt>
      <trkpt lat="45.88215" lon="6.3309">
        <ele>663.79998779297</ele>
        <time>2013-04-03T10:16:16.000Z</time>
      </trkpt>
      <trkpt lat="45.88221" lon="6.33093">
        <ele>666.20001220703</ele>
        <time>2013-04-03T10:16:20.000Z</time>
      </trkpt>
      <trkpt lat="45.88232" lon="6.33104">
        <ele>663.79998779297</ele>
        <time>2013-04-03T10:16:27.000Z</time>
      </trkpt>
      <trkpt lat="45.88239" lon="6.33113">
        <ele>665.79998779297</ele>
        <time>2013-04-03T10:16:32.000Z</time>
      </trkpt>
      <trkpt lat="45.88246" lon="6.33121">
        <ele>665.20001220703</ele>
        <time>2013-04-03T10:16:36.000Z</time>
      </trkpt>
      <trkpt lat="45.88248" lon="6.33122">
        <ele>665.79998779297</ele>
        <time>2013-04-03T10:16:37.000Z</time>
      </trkpt>
      <trkpt lat="45.88255" lon="6.33132">
        <ele>667.59997558594</ele>
        <time>2013-04-03T10:16:42.000Z</time>
      </trkpt>
      <trkpt lat="45.88258" lon="6.33146">
        <ele>668.20001220703</ele>
        <time>2013-04-03T10:16:48.000Z</time>
      </trkpt>
      <trkpt lat="45.8826" lon="6.33154">
        <ele>669.59997558594</ele>
        <time>2013-04-03T10:16:51.000Z</time>
      </trkpt>
      <trkpt lat="45.8827" lon="6.33163">
        <ele>670.59997558594</ele>
        <time>2013-04-03T10:16:57.000Z</time>
      </trkpt>
      <trkpt lat="45.88276" lon="6.33168">
        <ele>673.40002441406</ele>
        <time>2013-04-03T10:17:02.000Z</time>
      </trkpt>
      <trkpt lat="45.88281" lon="6.33176">
        <ele>675.79998779297</ele>
        <time>2013-04-03T10:17:06.000Z</time>
      </trkpt>
      <trkpt lat="45.88287" lon="6.33185">
        <ele>675.40002441406</ele>
        <time>2013-04-03T10:17:10.000Z</time>
      </trkpt>
      <trkpt lat="45.88291" lon="6.33196">
        <ele>674.40002441406</ele>
        <time>2013-04-03T10:17:15.000Z</time>
      </trkpt>
      <trkpt lat="45.88292" lon="6.33212">
        <ele>682.59997558594</ele>
        <time>2013-04-03T10:17:23.000Z</time>
      </trkpt>
      <trkpt lat="45.88292" lon="6.33221">
        <ele>685</ele>
        <time>2013-04-03T10:17:27.000Z</time>
      </trkpt>
      <trkpt lat="45.88293" lon="6.33231">
        <ele>682.59997558594</ele>
        <time>2013-04-03T10:17:32.000Z</time>
      </trkpt>
      <trkpt lat="45.88297" lon="6.33245">
        <ele>684</ele>
        <time>2013-04-03T10:17:37.000Z</time>
      </trkpt>
      <trkpt lat="45.88297" lon="6.33247">
        <ele>685.40002441406</ele>
        <time>2013-04-03T10:17:38.000Z</time>
      </trkpt>
      <trkpt lat="45.88299" lon="6.3326">
        <ele>691.20001220703</ele>
        <time>2013-04-03T10:17:43.000Z</time>
      </trkpt>
      <trkpt lat="45.88301" lon="6.33266">
        <ele>690.79998779297</ele>
        <time>2013-04-03T10:17:46.000Z</time>
      </trkpt>
      <trkpt lat="45.88301" lon="6.33272">
        <ele>689.79998779297</ele>
        <time>2013-04-03T10:17:48.000Z</time>
      </trkpt>
      <trkpt lat="45.88302" lon="6.33276">
        <ele>692.59997558594</ele>
        <time>2013-04-03T10:17:51.000Z</time>
      </trkpt>
      <trkpt lat="45.88309" lon="6.3327">
        <ele>694.20001220703</ele>
        <time>2013-04-03T10:17:56.000Z</time>
      </trkpt>
      <trkpt lat="45.88312" lon="6.33266">
        <ele>698.40002441406</ele>
        <time>2013-04-03T10:17:59.000Z</time>
      </trkpt>
      <trkpt lat="45.88315" lon="6.33262">
        <ele>698.40002441406</ele>
        <time>2013-04-03T10:18:01.000Z</time>
      </trkpt>
      <trkpt lat="45.88325" lon="6.33259">
        <ele>699.79998779297</ele>
        <time>2013-04-03T10:18:06.000Z</time>
      </trkpt>
      <trkpt lat="45.88336" lon="6.33263">
        <ele>699</ele>
        <time>2013-04-03T10:18:11.000Z</time>
      </trkpt>
      <trkpt lat="45.88339" lon="6.3327">
        <ele>699.79998779297</ele>
        <time>2013-04-03T10:18:14.000Z</time>
      </trkpt>
      <trkpt lat="45.88345" lon="6.33279">
        <ele>698</ele>
        <time>2013-04-03T10:18:19.000Z</time>
      </trkpt>
      <trkpt lat="45.88347" lon="6.33286">
        <ele>699.40002441406</ele>
        <time>2013-04-03T10:18:23.000Z</time>
      </trkpt>
      <trkpt lat="45.88352" lon="6.33298">
        <ele>702.20001220703</ele>
        <time>2013-04-03T10:18:28.000Z</time>
      </trkpt>
      <trkpt lat="45.88357" lon="6.33307">
        <ele>703.79998779297</ele>
        <time>2013-04-03T10:18:33.000Z</time>
      </trkpt>
      <trkpt lat="45.88363" lon="6.33319">
        <ele>707.59997558594</ele>
        <time>2013-04-03T10:18:38.000Z</time>
      </trkpt>
      <trkpt lat="45.88367" lon="6.33328">
        <ele>710.40002441406</ele>
        <time>2013-04-03T10:18:43.000Z</time>
      </trkpt>
      <trkpt lat="45.88373" lon="6.33335">
        <ele>711.79998779297</ele>
        <time>2013-04-03T10:18:47.000Z</time>
      </trkpt>
      <trkpt lat="45.8838" lon="6.33342">
        <ele>712.79998779297</ele>
        <time>2013-04-03T10:18:51.000Z</time>
      </trkpt>
      <trkpt lat="45.88382" lon="6.33344">
        <ele>714.20001220703</ele>
        <time>2013-04-03T10:18:52.000Z</time>
      </trkpt>
      <trkpt lat="45.88389" lon="6.33358">
        <ele>717.20001220703</ele>
        <time>2013-04-03T10:18:58.000Z</time>
      </trkpt>
      <trkpt lat="45.88394" lon="6.33367">
        <ele>718.59997558594</ele>
        <time>2013-04-03T10:19:02.000Z</time>
      </trkpt>
      <trkpt lat="45.88398" lon="6.3337">
        <ele>719.20001220703</ele>
        <time>2013-04-03T10:19:04.000Z</time>
      </trkpt>
      <trkpt lat="45.88401" lon="6.33382">
        <ele>720</ele>
        <time>2013-04-03T10:19:09.000Z</time>
      </trkpt>
      <trkpt lat="45.88405" lon="6.33394">
        <ele>721.59997558594</ele>
        <time>2013-04-03T10:19:14.000Z</time>
      </trkpt>
      <trkpt lat="45.88408" lon="6.334">
        <ele>722</ele>
        <time>2013-04-03T10:19:17.000Z</time>
      </trkpt>
      <trkpt lat="45.88414" lon="6.33411">
        <ele>722.40002441406</ele>
        <time>2013-04-03T10:19:23.000Z</time>
      </trkpt>
      <trkpt lat="45.88415" lon="6.33413">
        <ele>723</ele>
        <time>2013-04-03T10:19:24.000Z</time>
      </trkpt>
      <trkpt lat="45.88422" lon="6.33425">
        <ele>724.40002441406</ele>
        <time>2013-04-03T10:19:30.000Z</time>
      </trkpt>
      <trkpt lat="45.88427" lon="6.33437">
        <ele>725.40002441406</ele>
        <time>2013-04-03T10:19:35.000Z</time>
      </trkpt>
      <trkpt lat="45.88428" lon="6.33441">
        <ele>724.40002441406</ele>
        <time>2013-04-03T10:19:37.000Z</time>
      </trkpt>
      <trkpt lat="45.88436" lon="6.33452">
        <ele>722</ele>
        <time>2013-04-03T10:19:43.000Z</time>
      </trkpt>
      <trkpt lat="45.88437" lon="6.33462">
        <ele>723.40002441406</ele>
        <time>2013-04-03T10:19:47.000Z</time>
      </trkpt>
      <trkpt lat="45.88438" lon="6.33468">
        <ele>724.79998779297</ele>
        <time>2013-04-03T10:19:50.000Z</time>
      </trkpt>
      <trkpt lat="45.88443" lon="6.3348">
        <ele>725.79998779297</ele>
        <time>2013-04-03T10:19:54.000Z</time>
      </trkpt>
      <trkpt lat="45.88446" lon="6.33493">
        <ele>727.20001220703</ele>
        <time>2013-04-03T10:20:00.000Z</time>
      </trkpt>
      <trkpt lat="45.8845" lon="6.33495">
        <ele>729.20001220703</ele>
        <time>2013-04-03T10:20:02.000Z</time>
      </trkpt>
      <trkpt lat="45.88452" lon="6.33512">
        <ele>728.79998779297</ele>
        <time>2013-04-03T10:20:08.000Z</time>
      </trkpt>
      <trkpt lat="45.88452" lon="6.33514">
        <ele>728.79998779297</ele>
        <time>2013-04-03T10:20:09.000Z</time>
      </trkpt>
      <trkpt lat="45.88454" lon="6.33534">
        <ele>732.59997558594</ele>
        <time>2013-04-03T10:20:15.000Z</time>
      </trkpt>
      <trkpt lat="45.88457" lon="6.33543">
        <ele>736.79998779297</ele>
        <time>2013-04-03T10:20:20.000Z</time>
      </trkpt>
      <trkpt lat="45.88459" lon="6.33557">
        <ele>740.20001220703</ele>
        <time>2013-04-03T10:20:25.000Z</time>
      </trkpt>
      <trkpt lat="45.8846" lon="6.33562">
        <ele>739.20001220703</ele>
        <time>2013-04-03T10:20:27.000Z</time>
      </trkpt>
      <trkpt lat="45.88465" lon="6.33568">
        <ele>740.79998779297</ele>
        <time>2013-04-03T10:20:36.000Z</time>
      </trkpt>
      <trkpt lat="45.8847" lon="6.33561">
        <ele>721.59997558594</ele>
        <time>2013-04-03T10:20:50.000Z</time>
      </trkpt>
      <trkpt lat="45.88471" lon="6.33565">
        <ele>721.59997558594</ele>
        <time>2013-04-03T10:20:54.000Z</time>
      </trkpt>
      <trkpt lat="45.88472" lon="6.33565">
        <ele>722.40002441406</ele>
        <time>2013-04-03T10:20:56.000Z</time>
      </trkpt>
      <trkpt lat="45.88475" lon="6.3357">
        <ele>724</ele>
        <time>2013-04-03T10:21:02.000Z</time>
      </trkpt>
      <trkpt lat="45.88479" lon="6.33577">
        <ele>728.20001220703</ele>
        <time>2013-04-03T10:21:09.000Z</time>
      </trkpt>
      <trkpt lat="45.88483" lon="6.3358">
        <ele>730.59997558594</ele>
        <time>2013-04-03T10:21:14.000Z</time>
      </trkpt>
      <trkpt lat="45.88484" lon="6.33585">
        <ele>731.20001220703</ele>
        <time>2013-04-03T10:21:18.000Z</time>
      </trkpt>
      <trkpt lat="45.88486" lon="6.3359">
        <ele>731.20001220703</ele>
        <time>2013-04-03T10:21:23.000Z</time>
      </trkpt>
      <trkpt lat="45.88488" lon="6.33594">
        <ele>731.59997558594</ele>
        <time>2013-04-03T10:21:30.000Z</time>
      </trkpt>
      <trkpt lat="45.88489" lon="6.33598">
        <ele>736.40002441406</ele>
        <time>2013-04-03T10:21:35.000Z</time>
      </trkpt>
      <trkpt lat="45.88489" lon="6.33601">
        <ele>737.79998779297</ele>
        <time>2013-04-03T10:21:37.000Z</time>
      </trkpt>
      <trkpt lat="45.88499" lon="6.33614">
        <ele>738.79998779297</ele>
        <time>2013-04-03T10:21:42.000Z</time>
      </trkpt>
      <trkpt lat="45.88505" lon="6.33617">
        <ele>741.20001220703</ele>
        <time>2013-04-03T10:21:45.000Z</time>
      </trkpt>
      <trkpt lat="45.8851" lon="6.33621">
        <ele>741.20001220703</ele>
        <time>2013-04-03T10:21:47.000Z</time>
      </trkpt>
      <trkpt lat="45.88519" lon="6.33638">
        <ele>739.79998779297</ele>
        <time>2013-04-03T10:21:52.000Z</time>
      </trkpt>
      <trkpt lat="45.88523" lon="6.33663">
        <ele>734.40002441406</ele>
        <time>2013-04-03T10:21:58.000Z</time>
      </trkpt>
      <trkpt lat="45.88523" lon="6.33673">
        <ele>735</ele>
        <time>2013-04-03T10:22:00.000Z</time>
      </trkpt>
      <trkpt lat="45.88521" lon="6.33684">
        <ele>736.79998779297</ele>
        <time>2013-04-03T10:22:03.000Z</time>
      </trkpt>
      <trkpt lat="45.88518" lon="6.33701">
        <ele>735.40002441406</ele>
        <time>2013-04-03T10:22:07.000Z</time>
      </trkpt>
      <trkpt lat="45.88515" lon="6.33723">
        <ele>738.40002441406</ele>
        <time>2013-04-03T10:22:12.000Z</time>
      </trkpt>
      <trkpt lat="45.88515" lon="6.33729">
        <ele>739.20001220703</ele>
        <time>2013-04-03T10:22:16.000Z</time>
      </trkpt>
      <trkpt lat="45.88518" lon="6.33734">
        <ele>727.20001220703</ele>
        <time>2013-04-03T10:22:27.000Z</time>
      </trkpt>
      <trkpt lat="45.88517" lon="6.3375">
        <ele>723</ele>
        <time>2013-04-03T10:22:33.000Z</time>
      </trkpt>
      <trkpt lat="45.88518" lon="6.33754">
        <ele>728.79998779297</ele>
        <time>2013-04-03T10:22:41.000Z</time>
      </trkpt>
      <trkpt lat="45.88519" lon="6.33761">
        <ele>724</ele>
        <time>2013-04-03T10:22:46.000Z</time>
      </trkpt>
      <trkpt lat="45.88524" lon="6.33764">
        <ele>703.20001220703</ele>
        <time>2013-04-03T10:23:00.000Z</time>
      </trkpt>
      <trkpt lat="45.88525" lon="6.33769">
        <ele>707.59997558594</ele>
        <time>2013-04-03T10:23:04.000Z</time>
      </trkpt>
      <trkpt lat="45.88527" lon="6.33782">
        <ele>730.59997558594</ele>
        <time>2013-04-03T10:23:10.000Z</time>
      </trkpt>
      <trkpt lat="45.88522" lon="6.33795">
        <ele>746.59997558594</ele>
        <time>2013-04-03T10:23:16.000Z</time>
      </trkpt>
      <trkpt lat="45.8852" lon="6.33797">
        <ele>749</ele>
        <time>2013-04-03T10:23:18.000Z</time>
      </trkpt>
      <trkpt lat="45.8852" lon="6.33797">
        <ele>750.79998779297</ele>
        <time>2013-04-03T10:23:21.000Z</time>
      </trkpt>
      <trkpt lat="45.88514" lon="6.33789">
        <ele>747</ele>
        <time>2013-04-03T10:23:27.000Z</time>
      </trkpt>
      <trkpt lat="45.88513" lon="6.33787">
        <ele>748</ele>
        <time>2013-04-03T10:23:29.000Z</time>
      </trkpt>
      <trkpt lat="45.88504" lon="6.33783">
        <ele>751.40002441406</ele>
        <time>2013-04-03T10:23:39.000Z</time>
      </trkpt>
      <trkpt lat="45.88502" lon="6.33788">
        <ele>758</ele>
        <time>2013-04-03T10:23:45.000Z</time>
      </trkpt>
      <trkpt lat="45.88499" lon="6.33793">
        <ele>752.79998779297</ele>
        <time>2013-04-03T10:23:56.000Z</time>
      </trkpt>
      <trkpt lat="45.88495" lon="6.33797">
        <ele>751.79998779297</ele>
        <time>2013-04-03T10:24:07.000Z</time>
      </trkpt>
      <trkpt lat="45.88495" lon="6.33797">
        <ele>750.79998779297</ele>
        <time>2013-04-03T10:24:11.000Z</time>
      </trkpt>
      <trkpt lat="45.88495" lon="6.33791">
        <ele>756.20001220703</ele>
        <time>2013-04-03T10:24:18.000Z</time>
      </trkpt>
      <trkpt lat="45.88491" lon="6.33792">
        <ele>761</ele>
        <time>2013-04-03T10:24:22.000Z</time>
      </trkpt>
      <trkpt lat="45.88491" lon="6.33789">
        <ele>761.79998779297</ele>
        <time>2013-04-03T10:24:26.000Z</time>
      </trkpt>
      <trkpt lat="45.88487" lon="6.33792">
        <ele>760</ele>
        <time>2013-04-03T10:24:32.000Z</time>
      </trkpt>
      <trkpt lat="45.88486" lon="6.33792">
        <ele>757.59997558594</ele>
        <time>2013-04-03T10:24:34.000Z</time>
      </trkpt>
      <trkpt lat="45.88483" lon="6.33793">
        <ele>759</ele>
        <time>2013-04-03T10:24:40.000Z</time>
      </trkpt>
      <trkpt lat="45.88485" lon="6.33791">
        <ele>756.59997558594</ele>
        <time>2013-04-03T10:24:48.000Z</time>
      </trkpt>
      <trkpt lat="45.88477" lon="6.33796">
        <ele>759.40002441406</ele>
        <time>2013-04-03T10:24:56.000Z</time>
      </trkpt>
      <trkpt lat="45.88476" lon="6.33796">
        <ele>759.40002441406</ele>
        <time>2013-04-03T10:24:57.000Z</time>
      </trkpt>
      <trkpt lat="45.88471" lon="6.33793">
        <ele>765.20001220703</ele>
        <time>2013-04-03T10:25:04.000Z</time>
      </trkpt>
      <trkpt lat="45.8847" lon="6.33794">
        <ele>768.20001220703</ele>
        <time>2013-04-03T10:25:06.000Z</time>
      </trkpt>
      <trkpt lat="45.88466" lon="6.33792">
        <ele>769</ele>
        <time>2013-04-03T10:25:15.000Z</time>
      </trkpt>
      <trkpt lat="45.88461" lon="6.33791">
        <ele>770</ele>
        <time>2013-04-03T10:25:23.000Z</time>
      </trkpt>
      <trkpt lat="45.8846" lon="6.33789">
        <ele>773.40002441406</ele>
        <time>2013-04-03T10:25:30.000Z</time>
      </trkpt>
      <trkpt lat="45.88457" lon="6.33792">
        <ele>773</ele>
        <time>2013-04-03T10:25:36.000Z</time>
      </trkpt>
      <trkpt lat="45.88456" lon="6.33786">
        <ele>770.59997558594</ele>
        <time>2013-04-03T10:25:42.000Z</time>
      </trkpt>
      <trkpt lat="45.88452" lon="6.33789">
        <ele>773.79998779297</ele>
        <time>2013-04-03T10:25:48.000Z</time>
      </trkpt>
      <trkpt lat="45.88446" lon="6.33795">
        <ele>787.40002441406</ele>
        <time>2013-04-03T10:25:55.000Z</time>
      </trkpt>
      <trkpt lat="45.88444" lon="6.33794">
        <ele>792.20001220703</ele>
        <time>2013-04-03T10:26:06.000Z</time>
      </trkpt>
      <trkpt lat="45.88445" lon="6.33791">
        <ele>793.59997558594</ele>
        <time>2013-04-03T10:26:11.000Z</time>
      </trkpt>
      <trkpt lat="45.88448" lon="6.33795">
        <ele>783</ele>
        <time>2013-04-03T10:26:22.000Z</time>
      </trkpt>
      <trkpt lat="45.88449" lon="6.3378">
        <ele>783</ele>
        <time>2013-04-03T10:30:09.000Z</time>
      </trkpt>
      <trkpt lat="45.88447" lon="6.33782">
        <ele>782.59997558594</ele>
        <time>2013-04-03T10:30:11.000Z</time>
      </trkpt>
      <trkpt lat="45.88443" lon="6.33784">
        <ele>782</ele>
        <time>2013-04-03T10:30:15.000Z</time>
      </trkpt>
      <trkpt lat="45.88439" lon="6.33788">
        <ele>786</ele>
        <time>2013-04-03T10:30:20.000Z</time>
      </trkpt>
      <trkpt lat="45.88439" lon="6.33795">
        <ele>792.20001220703</ele>
        <time>2013-04-03T10:30:28.000Z</time>
      </trkpt>
      <trkpt lat="45.88438" lon="6.33797">
        <ele>794.59997558594</ele>
        <time>2013-04-03T10:30:36.000Z</time>
      </trkpt>
      <trkpt lat="45.88435" lon="6.33804">
        <ele>786.79998779297</ele>
        <time>2013-04-03T10:30:49.000Z</time>
      </trkpt>
      <trkpt lat="45.88434" lon="6.33802">
        <ele>785.40002441406</ele>
        <time>2013-04-03T10:30:53.000Z</time>
      </trkpt>
      <trkpt lat="45.88433" lon="6.33799">
        <ele>786</ele>
        <time>2013-04-03T10:30:58.000Z</time>
      </trkpt>
      <trkpt lat="45.88429" lon="6.33798">
        <ele>786</ele>
        <time>2013-04-03T10:31:02.000Z</time>
      </trkpt>
      <trkpt lat="45.88426" lon="6.33795">
        <ele>786.40002441406</ele>
        <time>2013-04-03T10:31:07.000Z</time>
      </trkpt>
      <trkpt lat="45.88425" lon="6.3379">
        <ele>786</ele>
        <time>2013-04-03T10:31:09.000Z</time>
      </trkpt>
      <trkpt lat="45.88421" lon="6.33787">
        <ele>786.79998779297</ele>
        <time>2013-04-03T10:31:16.000Z</time>
      </trkpt>
      <trkpt lat="45.88419" lon="6.33783">
        <ele>787.40002441406</ele>
        <time>2013-04-03T10:31:22.000Z</time>
      </trkpt>
      <trkpt lat="45.88416" lon="6.33782">
        <ele>790.79998779297</ele>
        <time>2013-04-03T10:31:27.000Z</time>
      </trkpt>
      <trkpt lat="45.88411" lon="6.3378">
        <ele>791.59997558594</ele>
        <time>2013-04-03T10:31:32.000Z</time>
      </trkpt>
      <trkpt lat="45.88408" lon="6.33778">
        <ele>793.20001220703</ele>
        <time>2013-04-03T10:31:35.000Z</time>
      </trkpt>
      <trkpt lat="45.88403" lon="6.33776">
        <ele>794</ele>
        <time>2013-04-03T10:31:38.000Z</time>
      </trkpt>
      <trkpt lat="45.88399" lon="6.33778">
        <ele>798.79998779297</ele>
        <time>2013-04-03T10:31:45.000Z</time>
      </trkpt>
      <trkpt lat="45.88398" lon="6.33781">
        <ele>798.40002441406</ele>
        <time>2013-04-03T10:31:51.000Z</time>
      </trkpt>
      <trkpt lat="45.88397" lon="6.33792">
        <ele>797</ele>
        <time>2013-04-03T10:31:56.000Z</time>
      </trkpt>
      <trkpt lat="45.88399" lon="6.33801">
        <ele>798.40002441406</ele>
        <time>2013-04-03T10:32:00.000Z</time>
      </trkpt>
      <trkpt lat="45.884" lon="6.33806">
        <ele>798.79998779297</ele>
        <time>2013-04-03T10:32:02.000Z</time>
      </trkpt>
      <trkpt lat="45.88402" lon="6.33818">
        <ele>798.79998779297</ele>
        <time>2013-04-03T10:32:07.000Z</time>
      </trkpt>
      <trkpt lat="45.88401" lon="6.33826">
        <ele>799.79998779297</ele>
        <time>2013-04-03T10:32:10.000Z</time>
      </trkpt>
      <trkpt lat="45.88402" lon="6.33841">
        <ele>803.59997558594</ele>
        <time>2013-04-03T10:32:15.000Z</time>
      </trkpt>
      <trkpt lat="45.88401" lon="6.33852">
        <ele>805.59997558594</ele>
        <time>2013-04-03T10:32:19.000Z</time>
      </trkpt>
      <trkpt lat="45.88399" lon="6.33866">
        <ele>806.59997558594</ele>
        <time>2013-04-03T10:32:25.000Z</time>
      </trkpt>
      <trkpt lat="45.88396" lon="6.33883">
        <ele>811.40002441406</ele>
        <time>2013-04-03T10:32:32.000Z</time>
      </trkpt>
      <trkpt lat="45.88392" lon="6.33896">
        <ele>817.20001220703</ele>
        <time>2013-04-03T10:32:37.000Z</time>
      </trkpt>
      <trkpt lat="45.88391" lon="6.33901">
        <ele>821.40002441406</ele>
        <time>2013-04-03T10:32:40.000Z</time>
      </trkpt>
      <trkpt lat="45.88385" lon="6.33912">
        <ele>821</ele>
        <time>2013-04-03T10:32:45.000Z</time>
      </trkpt>
      <trkpt lat="45.88383" lon="6.33914">
        <ele>819</ele>
        <time>2013-04-03T10:32:46.000Z</time>
      </trkpt>
      <trkpt lat="45.8838" lon="6.33927">
        <ele>822.40002441406</ele>
        <time>2013-04-03T10:32:52.000Z</time>
      </trkpt>
      <trkpt lat="45.88377" lon="6.33937">
        <ele>828.59997558594</ele>
        <time>2013-04-03T10:32:56.000Z</time>
      </trkpt>
      <trkpt lat="45.88377" lon="6.33946">
        <ele>828.59997558594</ele>
        <time>2013-04-03T10:33:00.000Z</time>
      </trkpt>
      <trkpt lat="45.88377" lon="6.33951">
        <ele>826.79998779297</ele>
        <time>2013-04-03T10:33:03.000Z</time>
      </trkpt>
      <trkpt lat="45.88377" lon="6.33969">
        <ele>828.59997558594</ele>
        <time>2013-04-03T10:33:10.000Z</time>
      </trkpt>
      <trkpt lat="45.88375" lon="6.33975">
        <ele>829.20001220703</ele>
        <time>2013-04-03T10:33:14.000Z</time>
      </trkpt>
      <trkpt lat="45.88374" lon="6.33979">
        <ele>829.20001220703</ele>
        <time>2013-04-03T10:33:16.000Z</time>
      </trkpt>
      <trkpt lat="45.88372" lon="6.33994">
        <ele>829.20001220703</ele>
        <time>2013-04-03T10:33:22.000Z</time>
      </trkpt>
      <trkpt lat="45.88373" lon="6.33998">
        <ele>831</ele>
        <time>2013-04-03T10:33:26.000Z</time>
      </trkpt>
      <trkpt lat="45.88374" lon="6.34001">
        <ele>835.40002441406</ele>
        <time>2013-04-03T10:33:34.000Z</time>
      </trkpt>
      <trkpt lat="45.88373" lon="6.33995">
        <ele>836.79998779297</ele>
        <time>2013-04-03T10:33:41.000Z</time>
      </trkpt>
      <trkpt lat="45.88371" lon="6.33982">
        <ele>842.20001220703</ele>
        <time>2013-04-03T10:33:47.000Z</time>
      </trkpt>
      <trkpt lat="45.8837" lon="6.33976">
        <ele>844</ele>
        <time>2013-04-03T10:33:53.000Z</time>
      </trkpt>
      <trkpt lat="45.88368" lon="6.33971">
        <ele>847</ele>
        <time>2013-04-03T10:33:57.000Z</time>
      </trkpt>
      <trkpt lat="45.88366" lon="6.3397">
        <ele>846</ele>
        <time>2013-04-03T10:33:59.000Z</time>
      </trkpt>
      <trkpt lat="45.88364" lon="6.33967">
        <ele>846</ele>
        <time>2013-04-03T10:34:02.000Z</time>
      </trkpt>
      <trkpt lat="45.88361" lon="6.33964">
        <ele>848.40002441406</ele>
        <time>2013-04-03T10:34:05.000Z</time>
      </trkpt>
      <trkpt lat="45.88354" lon="6.3396">
        <ele>846.40002441406</ele>
        <time>2013-04-03T10:34:08.000Z</time>
      </trkpt>
      <trkpt lat="45.88348" lon="6.33953">
        <ele>847</ele>
        <time>2013-04-03T10:34:14.000Z</time>
      </trkpt>
      <trkpt lat="45.88347" lon="6.33945">
        <ele>848.79998779297</ele>
        <time>2013-04-03T10:34:18.000Z</time>
      </trkpt>
      <trkpt lat="45.88343" lon="6.33937">
        <ele>848.79998779297</ele>
        <time>2013-04-03T10:34:22.000Z</time>
      </trkpt>
      <trkpt lat="45.88343" lon="6.33931">
        <ele>848</ele>
        <time>2013-04-03T10:34:25.000Z</time>
      </trkpt>
      <trkpt lat="45.88342" lon="6.33923">
        <ele>848.79998779297</ele>
        <time>2013-04-03T10:34:33.000Z</time>
      </trkpt>
      <trkpt lat="45.88341" lon="6.3392">
        <ele>849.40002441406</ele>
        <time>2013-04-03T10:34:37.000Z</time>
      </trkpt>
      <trkpt lat="45.88341" lon="6.33918">
        <ele>850.79998779297</ele>
        <time>2013-04-03T10:34:40.000Z</time>
      </trkpt>
      <trkpt lat="45.88338" lon="6.33912">
        <ele>849.40002441406</ele>
        <time>2013-04-03T10:34:44.000Z</time>
      </trkpt>
      <trkpt lat="45.88337" lon="6.3391">
        <ele>849.40002441406</ele>
        <time>2013-04-03T10:34:46.000Z</time>
      </trkpt>
      <trkpt lat="45.88331" lon="6.33902">
        <ele>849.40002441406</ele>
        <time>2013-04-03T10:34:52.000Z</time>
      </trkpt>
      <trkpt lat="45.88328" lon="6.33899">
        <ele>849.79998779297</ele>
        <time>2013-04-03T10:34:55.000Z</time>
      </trkpt>
      <trkpt lat="45.88326" lon="6.3389">
        <ele>852.79998779297</ele>
        <time>2013-04-03T10:35:02.000Z</time>
      </trkpt>
      <trkpt lat="45.88324" lon="6.33884">
        <ele>855.59997558594</ele>
        <time>2013-04-03T10:35:06.000Z</time>
      </trkpt>
      <trkpt lat="45.88322" lon="6.33878">
        <ele>859</ele>
        <time>2013-04-03T10:35:10.000Z</time>
      </trkpt>
      <trkpt lat="45.8832" lon="6.33875">
        <ele>860.40002441406</ele>
        <time>2013-04-03T10:35:13.000Z</time>
      </trkpt>
      <trkpt lat="45.88319" lon="6.33873">
        <ele>860.40002441406</ele>
        <time>2013-04-03T10:35:15.000Z</time>
      </trkpt>
      <trkpt lat="45.88317" lon="6.33868">
        <ele>866.59997558594</ele>
        <time>2013-04-03T10:35:22.000Z</time>
      </trkpt>
      <trkpt lat="45.88314" lon="6.33863">
        <ele>869</ele>
        <time>2013-04-03T10:35:28.000Z</time>
      </trkpt>
      <trkpt lat="45.8831" lon="6.33858">
        <ele>866.59997558594</ele>
        <time>2013-04-03T10:35:35.000Z</time>
      </trkpt>
      <trkpt lat="45.88307" lon="6.33854">
        <ele>866.20001220703</ele>
        <time>2013-04-03T10:35:41.000Z</time>
      </trkpt>
      <trkpt lat="45.88305" lon="6.3385">
        <ele>867.59997558594</ele>
        <time>2013-04-03T10:35:46.000Z</time>
      </trkpt>
      <trkpt lat="45.883" lon="6.33845">
        <ele>865.79998779297</ele>
        <time>2013-04-03T10:35:53.000Z</time>
      </trkpt>
      <trkpt lat="45.88294" lon="6.33841">
        <ele>866.20001220703</ele>
        <time>2013-04-03T10:36:00.000Z</time>
      </trkpt>
      <trkpt lat="45.88293" lon="6.33839">
        <ele>868.20001220703</ele>
        <time>2013-04-03T10:36:03.000Z</time>
      </trkpt>
      <trkpt lat="45.88288" lon="6.33836">
        <ele>870.59997558594</ele>
        <time>2013-04-03T10:36:11.000Z</time>
      </trkpt>
      <trkpt lat="45.88285" lon="6.33835">
        <ele>869</ele>
        <time>2013-04-03T10:36:16.000Z</time>
      </trkpt>
      <trkpt lat="45.88283" lon="6.33834">
        <ele>869.59997558594</ele>
        <time>2013-04-03T10:36:18.000Z</time>
      </trkpt>
      <trkpt lat="45.88279" lon="6.33829">
        <ele>869</ele>
        <time>2013-04-03T10:36:22.000Z</time>
      </trkpt>
      <trkpt lat="45.88274" lon="6.33822">
        <ele>868.59997558594</ele>
        <time>2013-04-03T10:36:26.000Z</time>
      </trkpt>
      <trkpt lat="45.88267" lon="6.33818">
        <ele>868.59997558594</ele>
        <time>2013-04-03T10:36:32.000Z</time>
      </trkpt>
      <trkpt lat="45.88263" lon="6.33817">
        <ele>868.59997558594</ele>
        <time>2013-04-03T10:36:36.000Z</time>
      </trkpt>
      <trkpt lat="45.88257" lon="6.33811">
        <ele>872.40002441406</ele>
        <time>2013-04-03T10:36:42.000Z</time>
      </trkpt>
      <trkpt lat="45.88255" lon="6.3381">
        <ele>873</ele>
        <time>2013-04-03T10:36:43.000Z</time>
      </trkpt>
      <trkpt lat="45.88251" lon="6.33809">
        <ele>874.40002441406</ele>
        <time>2013-04-03T10:36:47.000Z</time>
      </trkpt>
      <trkpt lat="45.88244" lon="6.33809">
        <ele>874.79998779297</ele>
        <time>2013-04-03T10:36:50.000Z</time>
      </trkpt>
      <trkpt lat="45.88233" lon="6.33808">
        <ele>877.20001220703</ele>
        <time>2013-04-03T10:36:56.000Z</time>
      </trkpt>
      <trkpt lat="45.88227" lon="6.3381">
        <ele>880.59997558594</ele>
        <time>2013-04-03T10:37:00.000Z</time>
      </trkpt>
      <trkpt lat="45.88222" lon="6.33812">
        <ele>883</ele>
        <time>2013-04-03T10:37:04.000Z</time>
      </trkpt>
      <trkpt lat="45.8822" lon="6.33812">
        <ele>884.40002441406</ele>
        <time>2013-04-03T10:37:07.000Z</time>
      </trkpt>
      <trkpt lat="45.88218" lon="6.33813">
        <ele>885</ele>
        <time>2013-04-03T10:37:14.000Z</time>
      </trkpt>
      <trkpt lat="45.88214" lon="6.33815">
        <ele>888.79998779297</ele>
        <time>2013-04-03T10:37:22.000Z</time>
      </trkpt>
      <trkpt lat="45.88211" lon="6.33819">
        <ele>889.20001220703</ele>
        <time>2013-04-03T10:37:27.000Z</time>
      </trkpt>
      <trkpt lat="45.88205" lon="6.33819">
        <ele>888.79998779297</ele>
        <time>2013-04-03T10:37:35.000Z</time>
      </trkpt>
      <trkpt lat="45.88203" lon="6.33822">
        <ele>891.20001220703</ele>
        <time>2013-04-03T10:37:43.000Z</time>
      </trkpt>
      <trkpt lat="45.88199" lon="6.33822">
        <ele>890.20001220703</ele>
        <time>2013-04-03T10:37:49.000Z</time>
      </trkpt>
      <trkpt lat="45.88198" lon="6.33807">
        <ele>910.40002441406</ele>
        <time>2013-04-03T10:38:11.000Z</time>
      </trkpt>
      <trkpt lat="45.88205" lon="6.33785">
        <ele>945.40002441406</ele>
        <time>2013-04-03T10:38:45.000Z</time>
      </trkpt>
      <trkpt lat="45.88206" lon="6.33784">
        <ele>947</ele>
        <time>2013-04-03T10:38:53.000Z</time>
      </trkpt>
      <trkpt lat="45.88206" lon="6.33781">
        <ele>948.79998779297</ele>
        <time>2013-04-03T10:39:03.000Z</time>
      </trkpt>
      <trkpt lat="45.88208" lon="6.33787">
        <ele>940.59997558594</ele>
        <time>2013-04-03T10:39:15.000Z</time>
      </trkpt>
      <trkpt lat="45.88212" lon="6.33794">
        <ele>926.20001220703</ele>
        <time>2013-04-03T10:39:26.000Z</time>
      </trkpt>
      <trkpt lat="45.88208" lon="6.33796">
        <ele>919.59997558594</ele>
        <time>2013-04-03T10:39:37.000Z</time>
      </trkpt>
      <trkpt lat="45.88204" lon="6.338">
        <ele>911.40002441406</ele>
        <time>2013-04-03T10:39:48.000Z</time>
      </trkpt>
      <trkpt lat="45.88204" lon="6.33805">
        <ele>904.20001220703</ele>
        <time>2013-04-03T10:39:58.000Z</time>
      </trkpt>
      <trkpt lat="45.88207" lon="6.33798">
        <ele>916.20001220703</ele>
        <time>2013-04-03T10:40:07.000Z</time>
      </trkpt>
      <trkpt lat="45.88212" lon="6.33794">
        <ele>926.79998779297</ele>
        <time>2013-04-03T10:40:17.000Z</time>
      </trkpt>
      <trkpt lat="45.88211" lon="6.338">
        <ele>920</ele>
        <time>2013-04-03T10:40:34.000Z</time>
      </trkpt>
      <trkpt lat="45.88211" lon="6.33801">
        <ele>919.59997558594</ele>
        <time>2013-04-03T10:40:35.000Z</time>
      </trkpt>
      <trkpt lat="45.88212" lon="6.33805">
        <ele>916.20001220703</ele>
        <time>2013-04-03T10:40:44.000Z</time>
      </trkpt>
      <trkpt lat="45.88214" lon="6.3381">
        <ele>914.79998779297</ele>
        <time>2013-04-03T10:40:56.000Z</time>
      </trkpt>
      <trkpt lat="45.8821" lon="6.33802">
        <ele>918.59997558594</ele>
        <time>2013-04-03T10:41:24.000Z</time>
      </trkpt>
      <trkpt lat="45.88204" lon="6.33798">
        <ele>910.79998779297</ele>
        <time>2013-04-03T10:41:29.000Z</time>
      </trkpt>
      <trkpt lat="45.88195" lon="6.33792">
        <ele>902.79998779297</ele>
        <time>2013-04-03T10:41:33.000Z</time>
      </trkpt>
      <trkpt lat="45.88184" lon="6.33782">
        <ele>893.59997558594</ele>
        <time>2013-04-03T10:41:37.000Z</time>
      </trkpt>
      <trkpt lat="45.88185" lon="6.33778">
        <ele>884.40002441406</ele>
        <time>2013-04-03T10:41:41.000Z</time>
      </trkpt>
      <trkpt lat="45.88185" lon="6.33777">
        <ele>883.40002441406</ele>
        <time>2013-04-03T10:41:42.000Z</time>
      </trkpt>
      <trkpt lat="45.88192" lon="6.33774">
        <ele>895.59997558594</ele>
        <time>2013-04-03T10:41:52.000Z</time>
      </trkpt>
      <trkpt lat="45.88193" lon="6.33773">
        <ele>903.59997558594</ele>
        <time>2013-04-03T10:42:01.000Z</time>
      </trkpt>
      <trkpt lat="45.88192" lon="6.33768">
        <ele>910</ele>
        <time>2013-04-03T10:42:07.000Z</time>
      </trkpt>
      <trkpt lat="45.88188" lon="6.3377">
        <ele>910.40002441406</ele>
        <time>2013-04-03T10:42:18.000Z</time>
      </trkpt>
      <trkpt lat="45.88184" lon="6.33769">
        <ele>900.40002441406</ele>
        <time>2013-04-03T10:42:22.000Z</time>
      </trkpt>
      <trkpt lat="45.88176" lon="6.33767">
        <ele>896</ele>
        <time>2013-04-03T10:42:26.000Z</time>
      </trkpt>
      <trkpt lat="45.88166" lon="6.33767">
        <ele>890.59997558594</ele>
        <time>2013-04-03T10:42:32.000Z</time>
      </trkpt>
      <trkpt lat="45.88156" lon="6.3377">
        <ele>887.40002441406</ele>
        <time>2013-04-03T10:42:36.000Z</time>
      </trkpt>
      <trkpt lat="45.88139" lon="6.33766">
        <ele>891.59997558594</ele>
        <time>2013-04-03T10:42:41.000Z</time>
      </trkpt>
      <trkpt lat="45.88135" lon="6.33757">
        <ele>891.59997558594</ele>
        <time>2013-04-03T10:42:46.000Z</time>
      </trkpt>
      <trkpt lat="45.88128" lon="6.33744">
        <ele>889.79998779297</ele>
        <time>2013-04-03T10:42:51.000Z</time>
      </trkpt>
      <trkpt lat="45.88121" lon="6.33734">
        <ele>891.59997558594</ele>
        <time>2013-04-03T10:42:55.000Z</time>
      </trkpt>
      <trkpt lat="45.88114" lon="6.33725">
        <ele>894</ele>
        <time>2013-04-03T10:43:01.000Z</time>
      </trkpt>
      <trkpt lat="45.88108" lon="6.33716">
        <ele>894</ele>
        <time>2013-04-03T10:43:06.000Z</time>
      </trkpt>
      <trkpt lat="45.88107" lon="6.33714">
        <ele>893.59997558594</ele>
        <time>2013-04-03T10:43:07.000Z</time>
      </trkpt>
      <trkpt lat="45.88097" lon="6.33702">
        <ele>896.40002441406</ele>
        <time>2013-04-03T10:43:12.000Z</time>
      </trkpt>
      <trkpt lat="45.88094" lon="6.33695">
        <ele>898</ele>
        <time>2013-04-03T10:43:15.000Z</time>
      </trkpt>
      <trkpt lat="45.8809" lon="6.33687">
        <ele>900.40002441406</ele>
        <time>2013-04-03T10:43:19.000Z</time>
      </trkpt>
      <trkpt lat="45.88081" lon="6.33673">
        <ele>898</ele>
        <time>2013-04-03T10:43:24.000Z</time>
      </trkpt>
      <trkpt lat="45.88073" lon="6.33661">
        <ele>899.79998779297</ele>
        <time>2013-04-03T10:43:28.000Z</time>
      </trkpt>
      <trkpt lat="45.88062" lon="6.33644">
        <ele>899.79998779297</ele>
        <time>2013-04-03T10:43:33.000Z</time>
      </trkpt>
      <trkpt lat="45.88059" lon="6.3364">
        <ele>898.40002441406</ele>
        <time>2013-04-03T10:43:35.000Z</time>
      </trkpt>
      <trkpt lat="45.8805" lon="6.33625">
        <ele>897.40002441406</ele>
        <time>2013-04-03T10:43:40.000Z</time>
      </trkpt>
      <trkpt lat="45.88046" lon="6.33613">
        <ele>898</ele>
        <time>2013-04-03T10:43:43.000Z</time>
      </trkpt>
      <trkpt lat="45.88044" lon="6.33595">
        <ele>901.79998779297</ele>
        <time>2013-04-03T10:43:48.000Z</time>
      </trkpt>
      <trkpt lat="45.88045" lon="6.33584">
        <ele>901.20001220703</ele>
        <time>2013-04-03T10:43:58.000Z</time>
      </trkpt>
      <trkpt lat="45.88044" lon="6.33585">
        <ele>894</ele>
        <time>2013-04-03T10:44:04.000Z</time>
      </trkpt>
      <trkpt lat="45.88046" lon="6.33587">
        <ele>892.20001220703</ele>
        <time>2013-04-03T10:44:05.000Z</time>
      </trkpt>
      <trkpt lat="45.88055" lon="6.33598">
        <ele>883.40002441406</ele>
        <time>2013-04-03T10:44:10.000Z</time>
      </trkpt>
      <trkpt lat="45.88065" lon="6.33608">
        <ele>879.20001220703</ele>
        <time>2013-04-03T10:44:15.000Z</time>
      </trkpt>
      <trkpt lat="45.88073" lon="6.33613">
        <ele>877.79998779297</ele>
        <time>2013-04-03T10:44:19.000Z</time>
      </trkpt>
      <trkpt lat="45.88074" lon="6.33614">
        <ele>877.79998779297</ele>
        <time>2013-04-03T10:44:20.000Z</time>
      </trkpt>
      <trkpt lat="45.88078" lon="6.33616">
        <ele>878.59997558594</ele>
        <time>2013-04-03T10:44:27.000Z</time>
      </trkpt>
      <trkpt lat="45.8807" lon="6.33614">
        <ele>874.40002441406</ele>
        <time>2013-04-03T10:44:32.000Z</time>
      </trkpt>
      <trkpt lat="45.88067" lon="6.3361">
        <ele>873.40002441406</ele>
        <time>2013-04-03T10:44:37.000Z</time>
      </trkpt>
      <trkpt lat="45.88064" lon="6.33601">
        <ele>875.79998779297</ele>
        <time>2013-04-03T10:44:47.000Z</time>
      </trkpt>
      <trkpt lat="45.8806" lon="6.33602">
        <ele>875.79998779297</ele>
        <time>2013-04-03T10:44:51.000Z</time>
      </trkpt>
      <trkpt lat="45.88055" lon="6.33602">
        <ele>874.40002441406</ele>
        <time>2013-04-03T10:44:57.000Z</time>
      </trkpt>
      <trkpt lat="45.88046" lon="6.33598">
        <ele>875.79998779297</ele>
        <time>2013-04-03T10:45:02.000Z</time>
      </trkpt>
      <trkpt lat="45.88038" lon="6.33591">
        <ele>879.20001220703</ele>
        <time>2013-04-03T10:45:06.000Z</time>
      </trkpt>
      <trkpt lat="45.88035" lon="6.33589">
        <ele>880.20001220703</ele>
        <time>2013-04-03T10:45:08.000Z</time>
      </trkpt>
      <trkpt lat="45.8803" lon="6.33579">
        <ele>877.79998779297</ele>
        <time>2013-04-03T10:45:13.000Z</time>
      </trkpt>
      <trkpt lat="45.88026" lon="6.33576">
        <ele>877.20001220703</ele>
        <time>2013-04-03T10:45:15.000Z</time>
      </trkpt>
      <trkpt lat="45.88021" lon="6.33567">
        <ele>877.79998779297</ele>
        <time>2013-04-03T10:45:20.000Z</time>
      </trkpt>
      <trkpt lat="45.88018" lon="6.33563">
        <ele>880.20001220703</ele>
        <time>2013-04-03T10:45:24.000Z</time>
      </trkpt>
      <trkpt lat="45.88013" lon="6.33558">
        <ele>879.59997558594</ele>
        <time>2013-04-03T10:45:28.000Z</time>
      </trkpt>
      <trkpt lat="45.88005" lon="6.33553">
        <ele>878.59997558594</ele>
        <time>2013-04-03T10:45:34.000Z</time>
      </trkpt>
      <trkpt lat="45.87998" lon="6.33547">
        <ele>880.20001220703</ele>
        <time>2013-04-03T10:45:39.000Z</time>
      </trkpt>
      <trkpt lat="45.8799" lon="6.33542">
        <ele>881.59997558594</ele>
        <time>2013-04-03T10:45:44.000Z</time>
      </trkpt>
      <trkpt lat="45.87986" lon="6.33541">
        <ele>882.59997558594</ele>
        <time>2013-04-03T10:45:46.000Z</time>
      </trkpt>
      <trkpt lat="45.8798" lon="6.33534">
        <ele>881</ele>
        <time>2013-04-03T10:45:50.000Z</time>
      </trkpt>
      <trkpt lat="45.8798" lon="6.33531">
        <ele>880.59997558594</ele>
        <time>2013-04-03T10:45:51.000Z</time>
      </trkpt>
      <trkpt lat="45.87978" lon="6.33525">
        <ele>879.20001220703</ele>
        <time>2013-04-03T10:45:53.000Z</time>
      </trkpt>
      <trkpt lat="45.87975" lon="6.33519">
        <ele>881</ele>
        <time>2013-04-03T10:45:58.000Z</time>
      </trkpt>
      <trkpt lat="45.87973" lon="6.33519">
        <ele>881</ele>
        <time>2013-04-03T10:46:02.000Z</time>
      </trkpt>
      <trkpt lat="45.87972" lon="6.33517">
        <ele>881</ele>
        <time>2013-04-03T10:46:03.000Z</time>
      </trkpt>
      <trkpt lat="45.87969" lon="6.33516">
        <ele>880.59997558594</ele>
        <time>2013-04-03T10:46:06.000Z</time>
      </trkpt>
      <trkpt lat="45.87966" lon="6.33514">
        <ele>881.59997558594</ele>
        <time>2013-04-03T10:46:09.000Z</time>
      </trkpt>
      <trkpt lat="45.87963" lon="6.33512">
        <ele>882.59997558594</ele>
        <time>2013-04-03T10:46:12.000Z</time>
      </trkpt>
      <trkpt lat="45.87959" lon="6.33507">
        <ele>880.59997558594</ele>
        <time>2013-04-03T10:46:16.000Z</time>
      </trkpt>
      <trkpt lat="45.87958" lon="6.33507">
        <ele>880.59997558594</ele>
        <time>2013-04-03T10:46:17.000Z</time>
      </trkpt>
      <trkpt lat="45.87952" lon="6.33503">
        <ele>879.59997558594</ele>
        <time>2013-04-03T10:46:21.000Z</time>
      </trkpt>
      <trkpt lat="45.87944" lon="6.33501">
        <ele>876.79998779297</ele>
        <time>2013-04-03T10:46:25.000Z</time>
      </trkpt>
      <trkpt lat="45.87938" lon="6.33494">
        <ele>876.79998779297</ele>
        <time>2013-04-03T10:46:30.000Z</time>
      </trkpt>
      <trkpt lat="45.8793" lon="6.33485">
        <ele>873.79998779297</ele>
        <time>2013-04-03T10:46:35.000Z</time>
      </trkpt>
      <trkpt lat="45.8792" lon="6.33473">
        <ele>871</ele>
        <time>2013-04-03T10:46:40.000Z</time>
      </trkpt>
      <trkpt lat="45.87922" lon="6.33463">
        <ele>868.59997558594</ele>
        <time>2013-04-03T10:46:44.000Z</time>
      </trkpt>
      <trkpt lat="45.87913" lon="6.33454">
        <ele>871</ele>
        <time>2013-04-03T10:46:49.000Z</time>
      </trkpt>
      <trkpt lat="45.87912" lon="6.33451">
        <ele>871</ele>
        <time>2013-04-03T10:46:52.000Z</time>
      </trkpt>
      <trkpt lat="45.87917" lon="6.33454">
        <ele>869.59997558594</ele>
        <time>2013-04-03T10:46:58.000Z</time>
      </trkpt>
      <trkpt lat="45.87919" lon="6.33452">
        <ele>868.20001220703</ele>
        <time>2013-04-03T10:47:03.000Z</time>
      </trkpt>
      <trkpt lat="45.8792" lon="6.33448">
        <ele>865.79998779297</ele>
        <time>2013-04-03T10:47:07.000Z</time>
      </trkpt>
      <trkpt lat="45.87922" lon="6.33448">
        <ele>865.20001220703</ele>
        <time>2013-04-03T10:47:08.000Z</time>
      </trkpt>
      <trkpt lat="45.87927" lon="6.33443">
        <ele>864.79998779297</ele>
        <time>2013-04-03T10:47:13.000Z</time>
      </trkpt>
      <trkpt lat="45.8793" lon="6.33436">
        <ele>863.79998779297</ele>
        <time>2013-04-03T10:47:18.000Z</time>
      </trkpt>
      <trkpt lat="45.8793" lon="6.33434">
        <ele>861.40002441406</ele>
        <time>2013-04-03T10:47:21.000Z</time>
      </trkpt>
      <trkpt lat="45.8793" lon="6.33426">
        <ele>852.79998779297</ele>
        <time>2013-04-03T10:47:26.000Z</time>
      </trkpt>
      <trkpt lat="45.87931" lon="6.3342">
        <ele>846</ele>
        <time>2013-04-03T10:47:31.000Z</time>
      </trkpt>
      <trkpt lat="45.87937" lon="6.33405">
        <ele>839.79998779297</ele>
        <time>2013-04-03T10:47:37.000Z</time>
      </trkpt>
      <trkpt lat="45.87942" lon="6.33401">
        <ele>835</ele>
        <time>2013-04-03T10:47:42.000Z</time>
      </trkpt>
      <trkpt lat="45.87944" lon="6.334">
        <ele>836</ele>
        <time>2013-04-03T10:47:43.000Z</time>
      </trkpt>
      <trkpt lat="45.87944" lon="6.33394">
        <ele>834.40002441406</ele>
        <time>2013-04-03T10:47:49.000Z</time>
      </trkpt>
      <trkpt lat="45.87944" lon="6.33388">
        <ele>837.79998779297</ele>
        <time>2013-04-03T10:47:55.000Z</time>
      </trkpt>
      <trkpt lat="45.87942" lon="6.3338">
        <ele>851.20001220703</ele>
        <time>2013-04-03T10:48:07.000Z</time>
      </trkpt>
      <trkpt lat="45.87943" lon="6.33375">
        <ele>845</ele>
        <time>2013-04-03T10:48:12.000Z</time>
      </trkpt>
      <trkpt lat="45.87945" lon="6.3337">
        <ele>842.20001220703</ele>
        <time>2013-04-03T10:48:17.000Z</time>
      </trkpt>
      <trkpt lat="45.87945" lon="6.33368">
        <ele>841.20001220703</ele>
        <time>2013-04-03T10:48:21.000Z</time>
      </trkpt>
      <trkpt lat="45.87946" lon="6.33367">
        <ele>836.40002441406</ele>
        <time>2013-04-03T10:48:25.000Z</time>
      </trkpt>
      <trkpt lat="45.87946" lon="6.33361">
        <ele>832.59997558594</ele>
        <time>2013-04-03T10:48:31.000Z</time>
      </trkpt>
      <trkpt lat="45.87947" lon="6.3336">
        <ele>826.79998779297</ele>
        <time>2013-04-03T10:48:37.000Z</time>
      </trkpt>
      <trkpt lat="45.87949" lon="6.3336">
        <ele>824.40002441406</ele>
        <time>2013-04-03T10:48:40.000Z</time>
      </trkpt>
      <trkpt lat="45.87952" lon="6.33368">
        <ele>818.20001220703</ele>
        <time>2013-04-03T10:48:45.000Z</time>
      </trkpt>
      <trkpt lat="45.87957" lon="6.33369">
        <ele>815.79998779297</ele>
        <time>2013-04-03T10:48:53.000Z</time>
      </trkpt>
      <trkpt lat="45.87958" lon="6.3337">
        <ele>815.20001220703</ele>
        <time>2013-04-03T10:48:59.000Z</time>
      </trkpt>
      <trkpt lat="45.8796" lon="6.3337">
        <ele>815.20001220703</ele>
        <time>2013-04-03T10:49:02.000Z</time>
      </trkpt>
      <trkpt lat="45.87968" lon="6.33365">
        <ele>816.59997558594</ele>
        <time>2013-04-03T10:49:07.000Z</time>
      </trkpt>
      <trkpt lat="45.87969" lon="6.33364">
        <ele>818.20001220703</ele>
        <time>2013-04-03T10:49:08.000Z</time>
      </trkpt>
      <trkpt lat="45.87972" lon="6.33355">
        <ele>821.40002441406</ele>
        <time>2013-04-03T10:49:13.000Z</time>
      </trkpt>
      <trkpt lat="45.87975" lon="6.3335">
        <ele>823.40002441406</ele>
        <time>2013-04-03T10:49:30.000Z</time>
      </trkpt>
      <trkpt lat="45.87976" lon="6.33348">
        <ele>823</ele>
        <time>2013-04-03T10:49:32.000Z</time>
      </trkpt>
      <trkpt lat="45.87981" lon="6.33345">
        <ele>818.59997558594</ele>
        <time>2013-04-03T10:49:37.000Z</time>
      </trkpt>
      <trkpt lat="45.87982" lon="6.33346">
        <ele>817.20001220703</ele>
        <time>2013-04-03T10:49:38.000Z</time>
      </trkpt>
      <trkpt lat="45.87983" lon="6.33342">
        <ele>808.59997558594</ele>
        <time>2013-04-03T10:49:43.000Z</time>
      </trkpt>
      <trkpt lat="45.87982" lon="6.33341">
        <ele>806.20001220703</ele>
        <time>2013-04-03T10:49:44.000Z</time>
      </trkpt>
      <trkpt lat="45.87981" lon="6.33329">
        <ele>795</ele>
        <time>2013-04-03T10:49:50.000Z</time>
      </trkpt>
      <trkpt lat="45.87983" lon="6.33325">
        <ele>792.59997558594</ele>
        <time>2013-04-03T10:49:52.000Z</time>
      </trkpt>
      <trkpt lat="45.87987" lon="6.33323">
        <ele>789.20001220703</ele>
        <time>2013-04-03T10:49:57.000Z</time>
      </trkpt>
      <trkpt lat="45.87984" lon="6.33318">
        <ele>786.40002441406</ele>
        <time>2013-04-03T10:50:01.000Z</time>
      </trkpt>
      <trkpt lat="45.87983" lon="6.33312">
        <ele>775.79998779297</ele>
        <time>2013-04-03T10:50:08.000Z</time>
      </trkpt>
      <trkpt lat="45.87984" lon="6.33303">
        <ele>773.79998779297</ele>
        <time>2013-04-03T10:50:19.000Z</time>
      </trkpt>
      <trkpt lat="45.87985" lon="6.33292">
        <ele>791.59997558594</ele>
        <time>2013-04-03T10:50:34.000Z</time>
      </trkpt>
      <trkpt lat="45.87985" lon="6.33289">
        <ele>791.59997558594</ele>
        <time>2013-04-03T10:50:40.000Z</time>
      </trkpt>
      <trkpt lat="45.87986" lon="6.33286">
        <ele>787.40002441406</ele>
        <time>2013-04-03T10:50:44.000Z</time>
      </trkpt>
      <trkpt lat="45.87986" lon="6.33281">
        <ele>786</ele>
        <time>2013-04-03T10:50:49.000Z</time>
      </trkpt>
      <trkpt lat="45.87985" lon="6.33278">
        <ele>783.59997558594</ele>
        <time>2013-04-03T10:50:53.000Z</time>
      </trkpt>
      <trkpt lat="45.87987" lon="6.33278">
        <ele>783</ele>
        <time>2013-04-03T10:50:58.000Z</time>
      </trkpt>
      <trkpt lat="45.87989" lon="6.33275">
        <ele>782</ele>
        <time>2013-04-03T10:51:04.000Z</time>
      </trkpt>
      <trkpt lat="45.87987" lon="6.33271">
        <ele>779.59997558594</ele>
        <time>2013-04-03T10:51:11.000Z</time>
      </trkpt>
      <trkpt lat="45.87983" lon="6.33267">
        <ele>776.40002441406</ele>
        <time>2013-04-03T10:51:16.000Z</time>
      </trkpt>
      <trkpt lat="45.8798" lon="6.3327">
        <ele>770</ele>
        <time>2013-04-03T10:51:21.000Z</time>
      </trkpt>
      <trkpt lat="45.8798" lon="6.3326">
        <ele>764.20001220703</ele>
        <time>2013-04-03T10:51:25.000Z</time>
      </trkpt>
      <trkpt lat="45.87985" lon="6.3325">
        <ele>759</ele>
        <time>2013-04-03T10:51:30.000Z</time>
      </trkpt>
      <trkpt lat="45.87989" lon="6.33248">
        <ele>751.40002441406</ele>
        <time>2013-04-03T10:51:36.000Z</time>
      </trkpt>
      <trkpt lat="45.8799" lon="6.33242">
        <ele>748.40002441406</ele>
        <time>2013-04-03T10:51:44.000Z</time>
      </trkpt>
      <trkpt lat="45.87997" lon="6.33239">
        <ele>746.59997558594</ele>
        <time>2013-04-03T10:51:49.000Z</time>
      </trkpt>
      <trkpt lat="45.88007" lon="6.3324">
        <ele>753.20001220703</ele>
        <time>2013-04-03T10:51:54.000Z</time>
      </trkpt>
      <trkpt lat="45.8801" lon="6.33237">
        <ele>761.79998779297</ele>
        <time>2013-04-03T10:51:58.000Z</time>
      </trkpt>
      <trkpt lat="45.88015" lon="6.33238">
        <ele>766.59997558594</ele>
        <time>2013-04-03T10:52:04.000Z</time>
      </trkpt>
      <trkpt lat="45.88017" lon="6.33239">
        <ele>767.20001220703</ele>
        <time>2013-04-03T10:52:05.000Z</time>
      </trkpt>
      <trkpt lat="45.88031" lon="6.33242">
        <ele>767.59997558594</ele>
        <time>2013-04-03T10:52:09.000Z</time>
      </trkpt>
      <trkpt lat="45.88043" lon="6.33252">
        <ele>761</ele>
        <time>2013-04-03T10:52:13.000Z</time>
      </trkpt>
      <trkpt lat="45.88045" lon="6.33256">
        <ele>757.59997558594</ele>
        <time>2013-04-03T10:52:16.000Z</time>
      </trkpt>
      <trkpt lat="45.88045" lon="6.33261">
        <ele>751.79998779297</ele>
        <time>2013-04-03T10:52:20.000Z</time>
      </trkpt>
      <trkpt lat="45.88046" lon="6.33269">
        <ele>749</ele>
        <time>2013-04-03T10:52:32.000Z</time>
      </trkpt>
      <trkpt lat="45.88041" lon="6.33268">
        <ele>748.40002441406</ele>
        <time>2013-04-03T10:52:37.000Z</time>
      </trkpt>
      <trkpt lat="45.88042" lon="6.33269">
        <ele>750.79998779297</ele>
        <time>2013-04-03T10:52:40.000Z</time>
      </trkpt>
      <trkpt lat="45.88051" lon="6.33281">
        <ele>751.79998779297</ele>
        <time>2013-04-03T10:52:45.000Z</time>
      </trkpt>
      <trkpt lat="45.88059" lon="6.33284">
        <ele>753.79998779297</ele>
        <time>2013-04-03T10:52:49.000Z</time>
      </trkpt>
      <trkpt lat="45.88062" lon="6.33285">
        <ele>753.79998779297</ele>
        <time>2013-04-03T10:52:50.000Z</time>
      </trkpt>
      <trkpt lat="45.88074" lon="6.33292">
        <ele>754.59997558594</ele>
        <time>2013-04-03T10:52:56.000Z</time>
      </trkpt>
      <trkpt lat="45.8808" lon="6.33296">
        <ele>755.59997558594</ele>
        <time>2013-04-03T10:53:01.000Z</time>
      </trkpt>
      <trkpt lat="45.88081" lon="6.33297">
        <ele>756.59997558594</ele>
        <time>2013-04-03T10:53:03.000Z</time>
      </trkpt>
      <trkpt lat="45.88086" lon="6.33302">
        <ele>757.59997558594</ele>
        <time>2013-04-03T10:53:08.000Z</time>
      </trkpt>
      <trkpt lat="45.88088" lon="6.33297">
        <ele>757.59997558594</ele>
        <time>2013-04-03T10:53:17.000Z</time>
      </trkpt>
      <trkpt lat="45.88089" lon="6.33296">
        <ele>757</ele>
        <time>2013-04-03T10:53:18.000Z</time>
      </trkpt>
      <trkpt lat="45.88093" lon="6.33295">
        <ele>756.59997558594</ele>
        <time>2013-04-03T10:53:21.000Z</time>
      </trkpt>
      <trkpt lat="45.88097" lon="6.33289">
        <ele>757.59997558594</ele>
        <time>2013-04-03T10:53:25.000Z</time>
      </trkpt>
      <trkpt lat="45.88096" lon="6.33286">
        <ele>746</ele>
        <time>2013-04-03T10:53:31.000Z</time>
      </trkpt>
      <trkpt lat="45.88099" lon="6.33282">
        <ele>744.59997558594</ele>
        <time>2013-04-03T10:53:34.000Z</time>
      </trkpt>
      <trkpt lat="45.881" lon="6.3328">
        <ele>743.20001220703</ele>
        <time>2013-04-03T10:53:37.000Z</time>
      </trkpt>
      <trkpt lat="45.88107" lon="6.33278">
        <ele>742.20001220703</ele>
        <time>2013-04-03T10:53:41.000Z</time>
      </trkpt>
      <trkpt lat="45.88114" lon="6.33273">
        <ele>740.79998779297</ele>
        <time>2013-04-03T10:53:46.000Z</time>
      </trkpt>
      <trkpt lat="45.88116" lon="6.33274">
        <ele>738.40002441406</ele>
        <time>2013-04-03T10:53:48.000Z</time>
      </trkpt>
      <trkpt lat="45.88119" lon="6.33276">
        <ele>736</ele>
        <time>2013-04-03T10:53:51.000Z</time>
      </trkpt>
      <trkpt lat="45.88123" lon="6.33273">
        <ele>736</ele>
        <time>2013-04-03T10:53:57.000Z</time>
      </trkpt>
      <trkpt lat="45.88127" lon="6.33272">
        <ele>736</ele>
        <time>2013-04-03T10:53:59.000Z</time>
      </trkpt>
      <trkpt lat="45.88129" lon="6.3327">
        <ele>737.40002441406</ele>
        <time>2013-04-03T10:54:01.000Z</time>
      </trkpt>
      <trkpt lat="45.88131" lon="6.33262">
        <ele>742.20001220703</ele>
        <time>2013-04-03T10:54:05.000Z</time>
      </trkpt>
      <trkpt lat="45.88131" lon="6.33259">
        <ele>739.79998779297</ele>
        <time>2013-04-03T10:54:07.000Z</time>
      </trkpt>
      <trkpt lat="45.88135" lon="6.33255">
        <ele>737.79998779297</ele>
        <time>2013-04-03T10:54:12.000Z</time>
      </trkpt>
      <trkpt lat="45.88138" lon="6.33255">
        <ele>736.40002441406</ele>
        <time>2013-04-03T10:54:17.000Z</time>
      </trkpt>
      <trkpt lat="45.88139" lon="6.33254">
        <ele>728.79998779297</ele>
        <time>2013-04-03T10:54:22.000Z</time>
      </trkpt>
      <trkpt lat="45.88139" lon="6.33255">
        <ele>725.40002441406</ele>
        <time>2013-04-03T10:54:23.000Z</time>
      </trkpt>
      <trkpt lat="45.88139" lon="6.3326">
        <ele>704.59997558594</ele>
        <time>2013-04-03T10:54:33.000Z</time>
      </trkpt>
      <trkpt lat="45.88139" lon="6.33257">
        <ele>701.79998779297</ele>
        <time>2013-04-03T10:54:36.000Z</time>
      </trkpt>
      <trkpt lat="45.88139" lon="6.33251">
        <ele>701.40002441406</ele>
        <time>2013-04-03T10:54:39.000Z</time>
      </trkpt>
      <trkpt lat="45.88139" lon="6.33246">
        <ele>703.20001220703</ele>
        <time>2013-04-03T10:54:44.000Z</time>
      </trkpt>
      <trkpt lat="45.88139" lon="6.33244">
        <ele>703.79998779297</ele>
        <time>2013-04-03T10:54:45.000Z</time>
      </trkpt>
      <trkpt lat="45.88142" lon="6.3323">
        <ele>704.59997558594</ele>
        <time>2013-04-03T10:54:50.000Z</time>
      </trkpt>
      <trkpt lat="45.88144" lon="6.33225">
        <ele>706.59997558594</ele>
        <time>2013-04-03T10:54:52.000Z</time>
      </trkpt>
      <trkpt lat="45.88144" lon="6.33224">
        <ele>711</ele>
        <time>2013-04-03T10:54:57.000Z</time>
      </trkpt>
      <trkpt lat="45.88149" lon="6.33224">
        <ele>719.20001220703</ele>
        <time>2013-04-03T10:55:05.000Z</time>
      </trkpt>
      <trkpt lat="45.88154" lon="6.33221">
        <ele>713.40002441406</ele>
        <time>2013-04-03T10:55:11.000Z</time>
      </trkpt>
      <trkpt lat="45.88156" lon="6.33221">
        <ele>708.59997558594</ele>
        <time>2013-04-03T10:55:15.000Z</time>
      </trkpt>
      <trkpt lat="45.88161" lon="6.33217">
        <ele>705.20001220703</ele>
        <time>2013-04-03T10:55:20.000Z</time>
      </trkpt>
      <trkpt lat="45.88165" lon="6.33217">
        <ele>701.79998779297</ele>
        <time>2013-04-03T10:55:24.000Z</time>
      </trkpt>
      <trkpt lat="45.88168" lon="6.33213">
        <ele>701.40002441406</ele>
        <time>2013-04-03T10:55:28.000Z</time>
      </trkpt>
      <trkpt lat="45.88171" lon="6.33207">
        <ele>701.40002441406</ele>
        <time>2013-04-03T10:55:36.000Z</time>
      </trkpt>
      <trkpt lat="45.88171" lon="6.33203">
        <ele>700.79998779297</ele>
        <time>2013-04-03T10:55:43.000Z</time>
      </trkpt>
      <trkpt lat="45.88173" lon="6.33202">
        <ele>702.20001220703</ele>
        <time>2013-04-03T10:55:47.000Z</time>
      </trkpt>
      <trkpt lat="45.88174" lon="6.33202">
        <ele>701.40002441406</ele>
        <time>2013-04-03T10:55:49.000Z</time>
      </trkpt>
      <trkpt lat="45.88176" lon="6.33193">
        <ele>709.40002441406</ele>
        <time>2013-04-03T10:55:53.000Z</time>
      </trkpt>
      <trkpt lat="45.8818" lon="6.33187">
        <ele>707.59997558594</ele>
        <time>2013-04-03T10:55:57.000Z</time>
      </trkpt>
      <trkpt lat="45.88185" lon="6.33174">
        <ele>704.20001220703</ele>
        <time>2013-04-03T10:56:02.000Z</time>
      </trkpt>
      <trkpt lat="45.88188" lon="6.33166">
        <ele>710</ele>
        <time>2013-04-03T10:56:07.000Z</time>
      </trkpt>
      <trkpt lat="45.88189" lon="6.33165">
        <ele>706.20001220703</ele>
        <time>2013-04-03T10:56:14.000Z</time>
      </trkpt>
      <trkpt lat="45.88193" lon="6.33162">
        <ele>703.20001220703</ele>
        <time>2013-04-03T10:56:18.000Z</time>
      </trkpt>
      <trkpt lat="45.88193" lon="6.33157">
        <ele>700.40002441406</ele>
        <time>2013-04-03T10:56:21.000Z</time>
      </trkpt>
      <trkpt lat="45.88194" lon="6.33154">
        <ele>699.40002441406</ele>
        <time>2013-04-03T10:56:25.000Z</time>
      </trkpt>
      <trkpt lat="45.88195" lon="6.33149">
        <ele>694.20001220703</ele>
        <time>2013-04-03T10:56:31.000Z</time>
      </trkpt>
      <trkpt lat="45.88198" lon="6.33143">
        <ele>686.40002441406</ele>
        <time>2013-04-03T10:56:39.000Z</time>
      </trkpt>
      <trkpt lat="45.88199" lon="6.33139">
        <ele>682.59997558594</ele>
        <time>2013-04-03T10:56:47.000Z</time>
      </trkpt>
      <trkpt lat="45.88198" lon="6.33133">
        <ele>682</ele>
        <time>2013-04-03T10:56:54.000Z</time>
      </trkpt>
      <trkpt lat="45.88196" lon="6.33128">
        <ele>678.20001220703</ele>
        <time>2013-04-03T10:57:00.000Z</time>
      </trkpt>
      <trkpt lat="45.88197" lon="6.33125">
        <ele>675.40002441406</ele>
        <time>2013-04-03T10:57:05.000Z</time>
      </trkpt>
      <trkpt lat="45.88192" lon="6.33121">
        <ele>669.20001220703</ele>
        <time>2013-04-03T10:57:13.000Z</time>
      </trkpt>
      <trkpt lat="45.88191" lon="6.33119">
        <ele>667.20001220703</ele>
        <time>2013-04-03T10:57:14.000Z</time>
      </trkpt>
      <trkpt lat="45.88191" lon="6.33112">
        <ele>663.40002441406</ele>
        <time>2013-04-03T10:57:18.000Z</time>
      </trkpt>
      <trkpt lat="45.88193" lon="6.33106">
        <ele>660</ele>
        <time>2013-04-03T10:57:26.000Z</time>
      </trkpt>
      <trkpt lat="45.88195" lon="6.33104">
        <ele>660.40002441406</ele>
        <time>2013-04-03T10:57:30.000Z</time>
      </trkpt>
      <trkpt lat="45.88195" lon="6.33098">
        <ele>660</ele>
        <time>2013-04-03T10:57:35.000Z</time>
      </trkpt>
      <trkpt lat="45.88197" lon="6.33091">
        <ele>673.40002441406</ele>
        <time>2013-04-03T10:57:41.000Z</time>
      </trkpt>
      <trkpt lat="45.88199" lon="6.33085">
        <ele>671</ele>
        <time>2013-04-03T10:57:47.000Z</time>
      </trkpt>
      <trkpt lat="45.88191" lon="6.33075">
        <ele>669.59997558594</ele>
        <time>2013-04-03T10:57:52.000Z</time>
      </trkpt>
      <trkpt lat="45.88188" lon="6.33064">
        <ele>670.59997558594</ele>
        <time>2013-04-03T10:57:55.000Z</time>
      </trkpt>
      <trkpt lat="45.88182" lon="6.33042">
        <ele>663.40002441406</ele>
        <time>2013-04-03T10:58:01.000Z</time>
      </trkpt>
      <trkpt lat="45.88181" lon="6.33029">
        <ele>655.59997558594</ele>
        <time>2013-04-03T10:58:05.000Z</time>
      </trkpt>
      <trkpt lat="45.88181" lon="6.3302">
        <ele>650.79998779297</ele>
        <time>2013-04-03T10:58:08.000Z</time>
      </trkpt>
      <trkpt lat="45.8817" lon="6.32996">
        <ele>649</ele>
        <time>2013-04-03T10:58:14.000Z</time>
      </trkpt>
      <trkpt lat="45.8816" lon="6.32984">
        <ele>644.59997558594</ele>
        <time>2013-04-03T10:58:18.000Z</time>
      </trkpt>
      <trkpt lat="45.88157" lon="6.32977">
        <ele>642.59997558594</ele>
        <time>2013-04-03T10:58:20.000Z</time>
      </trkpt>
      <trkpt lat="45.88162" lon="6.32954">
        <ele>637.79998779297</ele>
        <time>2013-04-03T10:58:25.000Z</time>
      </trkpt>
      <trkpt lat="45.88165" lon="6.32952">
        <ele>637</ele>
        <time>2013-04-03T10:58:26.000Z</time>
      </trkpt>
      <trkpt lat="45.88175" lon="6.32933">
        <ele>634</ele>
        <time>2013-04-03T10:58:31.000Z</time>
      </trkpt>
      <trkpt lat="45.88177" lon="6.32905">
        <ele>636</ele>
        <time>2013-04-03T10:58:36.000Z</time>
      </trkpt>
      <trkpt lat="45.88176" lon="6.32889">
        <ele>635</ele>
        <time>2013-04-03T10:58:39.000Z</time>
      </trkpt>
      <trkpt lat="45.88174" lon="6.32862">
        <ele>634</ele>
        <time>2013-04-03T10:58:44.000Z</time>
      </trkpt>
      <trkpt lat="45.88176" lon="6.3283">
        <ele>630.59997558594</ele>
        <time>2013-04-03T10:58:50.000Z</time>
      </trkpt>
      <trkpt lat="45.88173" lon="6.32808">
        <ele>628.20001220703</ele>
        <time>2013-04-03T10:58:55.000Z</time>
      </trkpt>
      <trkpt lat="45.8817" lon="6.32792">
        <ele>627.20001220703</ele>
        <time>2013-04-03T10:58:58.000Z</time>
      </trkpt>
      <trkpt lat="45.88162" lon="6.32763">
        <ele>628.20001220703</ele>
        <time>2013-04-03T10:59:04.000Z</time>
      </trkpt>
      <trkpt lat="45.88154" lon="6.32738">
        <ele>630.59997558594</ele>
        <time>2013-04-03T10:59:09.000Z</time>
      </trkpt>
      <trkpt lat="45.88149" lon="6.32709">
        <ele>632.20001220703</ele>
        <time>2013-04-03T10:59:15.000Z</time>
      </trkpt>
      <trkpt lat="45.8815" lon="6.32695">
        <ele>632.20001220703</ele>
        <time>2013-04-03T10:59:18.000Z</time>
      </trkpt>
      <trkpt lat="45.88156" lon="6.32671">
        <ele>638.79998779297</ele>
        <time>2013-04-03T10:59:23.000Z</time>
      </trkpt>
      <trkpt lat="45.88162" lon="6.32658">
        <ele>636.40002441406</ele>
        <time>2013-04-03T10:59:27.000Z</time>
      </trkpt>
      <trkpt lat="45.88167" lon="6.32643">
        <ele>637.40002441406</ele>
        <time>2013-04-03T10:59:32.000Z</time>
      </trkpt>
      <trkpt lat="45.88168" lon="6.32639">
        <ele>637.79998779297</ele>
        <time>2013-04-03T10:59:34.000Z</time>
      </trkpt>
      <trkpt lat="45.88168" lon="6.32629">
        <ele>635.40002441406</ele>
        <time>2013-04-03T10:59:39.000Z</time>
      </trkpt>
      <trkpt lat="45.88176" lon="6.32631">
        <ele>630.20001220703</ele>
        <time>2013-04-03T10:59:44.000Z</time>
      </trkpt>
      <trkpt lat="45.88178" lon="6.32631">
        <ele>629.79998779297</ele>
        <time>2013-04-03T10:59:45.000Z</time>
      </trkpt>
      <trkpt lat="45.88182" lon="6.3263">
        <ele>624.79998779297</ele>
        <time>2013-04-03T10:59:53.000Z</time>
      </trkpt>
      <trkpt lat="45.88181" lon="6.32628">
        <ele>625.40002441406</ele>
        <time>2013-04-03T10:59:55.000Z</time>
      </trkpt>
      <trkpt lat="45.88184" lon="6.32625">
        <ele>625.79998779297</ele>
        <time>2013-04-03T11:00:01.000Z</time>
      </trkpt>
      <trkpt lat="45.88183" lon="6.32624">
        <ele>623</ele>
        <time>2013-04-03T11:00:18.000Z</time>
      </trkpt>
      <trkpt lat="45.88177" lon="6.32622">
        <ele>616.79998779297</ele>
        <time>2013-04-03T11:00:24.000Z</time>
      </trkpt>
      <trkpt lat="45.88178" lon="6.32615">
        <ele>616.79998779297</ele>
        <time>2013-04-03T11:00:29.000Z</time>
      </trkpt>
      <trkpt lat="45.8818" lon="6.32612">
        <ele>618.59997558594</ele>
        <time>2013-04-03T11:00:33.000Z</time>
      </trkpt>
    </trkseg>
  </trk>
</gpx>